Terminal Aerodrome Forecast
Issued by NWS Twin Cities, MN

Home | Current Version | Previous Version | Text Only | Print | Product List | Glossary On
Versions: 1 2 3 4 5 6 7 8 9 10 11 12
000
FTUS43 KMPX 271720
TAFEAU
TAF
KEAU 271720Z 2718/2818 24009KT P6SM FEW050 BKN250
     FM280100 18008KT P6SM BKN250
     FM280600 16009KT P6SM BKN250 WS020/20040KT
     FM281000 16011KT P6SM VCTS SCT030 BKN070CB WS020/19040KT
     FM281200 16012KT 6SM SHRA BR VCTS BKN020 OVC070CB
     FM281400 16009KT 5SM SHRA BR VCTS OVC015CB=

USA.gov is the U.S. government's official web portal to all federal, state and local government web resources and services.